X  Fermer Données météorologiques d'aviation de Metar     LFBE Bergerac-Roumanière Airport
Température
6°C Température
3°C Point de rosée
81% Humidité



Vent
19 KM/H
12 MPH
5 M/S
10 KTS



270°
Ouest
Conditions actuelles

Partiellement nuageux Partiellement nuageux
Pression 1013.92 (hPa) - 29.94 (inHg)
Visibilité 6.2 (mile) - 10 (km)
Aéroport
Code de l'aéroport LFBE

Emplacement: Bergerac-Roumanière Airport
Distance: 26 (km)

Metar:
LFBE 051800Z AUTO 27010KT 9999 FEW034 06/03 Q1014 TEMPO 4000 -SHRA BKN030TCU

Temps: 05-12-2021 19:00 CET